N66HR EDDG-EDDH
Flight info
| Callsign | N66HR |
|---|---|
| Flight time | 0h 34m |
| Altitude | 11000 |
| Route | OSNAD1E/07 OSNAD M170 BASUM Y850 MUBZI M105 RIBSO RIBSO7A/05 |
| Aircraft | SF50/L-V/N |
Departure
| Time | 2026-05-05 16:01 |
|---|---|
| Airport | Münster Osnabrück Airport (EDDG) |
Arrival
| Time | 2026-05-05 16:36 |
|---|---|
| Airport | Hamburg Helmut Schmidt Airport (EDDH) |
| Time | Latitude | Longitude | Altitude | Speed | Heading |
|---|---|---|---|---|---|
| 2026-05-05 15:45 | 52.13124 | 7.68611 | 155 ft | 0 kts | 271° |
| 2026-05-05 15:58 | 52.13124 | 7.68607 | 155 ft | 4 kts | 274° |
| 2026-05-05 15:58 | 52.13108 | 7.68474 | 155 ft | 11 kts | 259° |
| 2026-05-05 15:58 | 52.13155 | 7.68376 | 155 ft | 14 kts | 339° |
| 2026-05-05 15:59 | 52.13239 | 7.68294 | 155 ft | 14 kts | 285° |
| 2026-05-05 15:59 | 52.13205 | 7.68084 | 155 ft | 22 kts | 250° |
| 2026-05-05 15:59 | 52.13160 | 7.67868 | 155 ft | 18 kts | 250° |
| 2026-05-05 15:59 | 52.13116 | 7.67667 | 155 ft | 23 kts | 252° |
| 2026-05-05 16:00 | 52.13066 | 7.67433 | 156 ft | 17 kts | 253° |
| 2026-05-05 16:00 | 52.13032 | 7.67257 | 156 ft | 17 kts | 258° |
| 2026-05-05 16:00 | 52.13084 | 7.67065 | 155 ft | 20 kts | 329° |
| 2026-05-05 16:00 | 52.13171 | 7.67112 | 157 ft | 10 kts | 69° |
| 2026-05-05 16:01 | 52.13177 | 7.67138 | 158 ft | 0 kts | 69° |
| 2026-05-05 16:01 | 52.13267 | 7.67548 | 157 ft | 76 kts | 70° |
| 2026-05-05 16:01 | 52.13471 | 7.68581 | 372 ft | 108 kts | 68° |
| 2026-05-05 16:01 | 52.13705 | 7.69752 | 927 ft | 118 kts | 68° |
| 2026-05-05 16:02 | 52.14007 | 7.71122 | 1429 ft | 141 kts | 66° |
| 2026-05-05 16:02 | 52.14357 | 7.72721 | 1975 ft | 162 kts | 68° |
| 2026-05-05 16:02 | 52.14747 | 7.74555 | 2512 ft | 182 kts | 69° |
| 2026-05-05 16:02 | 52.15174 | 7.76582 | 3043 ft | 198 kts | 69° |
| 2026-05-05 16:03 | 52.15628 | 7.78742 | 3562 ft | 211 kts | 69° |
| 2026-05-05 16:03 | 52.16117 | 7.81067 | 4085 ft | 221 kts | 70° |
| 2026-05-05 16:03 | 52.16438 | 7.83526 | 4594 ft | 229 kts | 81° |
| 2026-05-05 16:03 | 52.16657 | 7.86094 | 5099 ft | 235 kts | 81° |
| 2026-05-05 16:04 | 52.16873 | 7.88735 | 5608 ft | 239 kts | 81° |
| 2026-05-05 16:04 | 52.17092 | 7.91452 | 6118 ft | 242 kts | 82° |
| 2026-05-05 16:04 | 52.17308 | 7.94147 | 6615 ft | 245 kts | 82° |
| 2026-05-05 16:04 | 52.17529 | 7.96903 | 7120 ft | 247 kts | 82° |
| 2026-05-05 16:05 | 52.17751 | 7.99694 | 7623 ft | 249 kts | 82° |
| 2026-05-05 16:05 | 52.17971 | 8.02461 | 8121 ft | 250 kts | 82° |
| 2026-05-05 16:05 | 52.18196 | 8.05288 | 8626 ft | 251 kts | 82° |
| 2026-05-05 16:05 | 52.18415 | 8.08064 | 9118 ft | 251 kts | 83° |
| 2026-05-05 16:06 | 52.18639 | 8.10903 | 9620 ft | 251 kts | 83° |
| 2026-05-05 16:06 | 52.18860 | 8.13719 | 10120 ft | 252 kts | 83° |
| 2026-05-05 16:06 | 52.19080 | 8.16525 | 10614 ft | 251 kts | 83° |
| 2026-05-05 16:06 | 52.19299 | 8.19318 | 11103 ft | 251 kts | 83° |
| 2026-05-05 16:07 | 52.19517 | 8.22132 | 11595 ft | 251 kts | 84° |
| 2026-05-05 16:07 | 52.19734 | 8.24921 | 12084 ft | 250 kts | 84° |
| 2026-05-05 16:07 | 52.20106 | 8.27653 | 12550 ft | 252 kts | 61° |
| 2026-05-05 16:07 | 52.21348 | 8.29569 | 13072 ft | 249 kts | 31° |
| 2026-05-05 16:08 | 52.22839 | 8.30970 | 13566 ft | 248 kts | 28° |
| 2026-05-05 16:08 | 52.24363 | 8.32314 | 14063 ft | 247 kts | 27° |
| 2026-05-05 16:08 | 52.25870 | 8.33628 | 14557 ft | 246 kts | 27° |
| 2026-05-05 16:08 | 52.27388 | 8.34949 | 14816 ft | 255 kts | 27° |
| 2026-05-05 16:09 | 52.28997 | 8.36349 | 14857 ft | 270 kts | 27° |
| 2026-05-05 16:09 | 52.30678 | 8.37812 | 14863 ft | 283 kts | 27° |
| 2026-05-05 16:09 | 52.32453 | 8.39358 | 14862 ft | 293 kts | 27° |
| 2026-05-05 16:09 | 52.34267 | 8.40940 | 14864 ft | 300 kts | 27° |
| 2026-05-05 16:10 | 52.36132 | 8.42567 | 14864 ft | 304 kts | 27° |
| 2026-05-05 16:10 | 52.38043 | 8.43975 | 14838 ft | 308 kts | 31° |
| 2026-05-05 16:10 | 52.39902 | 8.45786 | 14871 ft | 309 kts | 29° |
| 2026-05-05 16:10 | 52.41776 | 8.47480 | 14861 ft | 311 kts | 28° |
| 2026-05-05 16:11 | 52.43678 | 8.49167 | 14865 ft | 313 kts | 27° |
| 2026-05-05 16:11 | 52.49431 | 8.54214 | 14871 ft | 312 kts | 27° |
| 2026-05-05 16:12 | 52.51327 | 8.55885 | 14869 ft | 312 kts | 27° |
| 2026-05-05 16:12 | 52.55158 | 8.59277 | 14867 ft | 312 kts | 27° |
| 2026-05-05 16:13 | 52.60855 | 8.64316 | 14870 ft | 312 kts | 27° |
| 2026-05-05 16:13 | 52.62776 | 8.66017 | 14868 ft | 311 kts | 28° |
| 2026-05-05 16:13 | 52.64665 | 8.67693 | 14871 ft | 311 kts | 27° |
| 2026-05-05 16:14 | 52.68457 | 8.71060 | 14873 ft | 311 kts | 27° |
| 2026-05-05 16:14 | 52.72271 | 8.74455 | 14873 ft | 311 kts | 27° |
| 2026-05-05 16:15 | 52.76075 | 8.77846 | 14874 ft | 311 kts | 27° |
| 2026-05-05 16:15 | 52.80271 | 8.78818 | 14874 ft | 307 kts | 358° |
| 2026-05-05 16:16 | 52.84517 | 8.78799 | 14874 ft | 307 kts | 358° |
| 2026-05-05 16:16 | 52.88800 | 8.78769 | 14875 ft | 306 kts | 358° |
| 2026-05-05 16:17 | 52.93054 | 8.78740 | 14881 ft | 305 kts | 358° |
| 2026-05-05 16:17 | 52.95176 | 8.78726 | 14882 ft | 305 kts | 358° |
| 2026-05-05 16:18 | 52.99374 | 8.79411 | 14882 ft | 305 kts | 6° |
| 2026-05-05 16:18 | 53.01467 | 8.79879 | 14886 ft | 305 kts | 6° |
| 2026-05-05 16:18 | 53.05661 | 8.81065 | 14896 ft | 306 kts | 11° |
| 2026-05-05 16:19 | 53.07761 | 8.81440 | 14886 ft | 306 kts | 6° |
| 2026-05-05 16:19 | 53.09881 | 8.81846 | 14892 ft | 306 kts | 6° |
| 2026-05-05 16:19 | 53.13950 | 8.82725 | 13868 ft | 286 kts | 6° |
| 2026-05-05 16:20 | 53.17769 | 8.83587 | 12919 ft | 272 kts | 6° |
| 2026-05-05 16:20 | 53.21463 | 8.84429 | 11926 ft | 265 kts | 6° |
| 2026-05-05 16:21 | 53.25093 | 8.85259 | 10801 ft | 266 kts | 6° |
| 2026-05-05 16:22 | 53.30539 | 8.86506 | 8939 ft | 255 kts | 6° |
| 2026-05-05 16:22 | 53.33827 | 8.87403 | 7642 ft | 236 kts | 22° |
| 2026-05-05 16:23 | 53.35508 | 8.91823 | 6406 ft | 234 kts | 69° |
| 2026-05-05 16:23 | 53.36055 | 8.94370 | 5764 ft | 232 kts | 69° |
| 2026-05-05 16:23 | 53.37076 | 8.99349 | 4904 ft | 217 kts | 70° |
| 2026-05-05 16:24 | 53.37543 | 9.01667 | 4870 ft | 203 kts | 70° |
| 2026-05-05 16:24 | 53.37975 | 9.03826 | 4868 ft | 192 kts | 70° |
| 2026-05-05 16:24 | 53.38090 | 9.07986 | 4878 ft | 182 kts | 92° |
| 2026-05-05 16:25 | 53.38059 | 9.10221 | 4894 ft | 202 kts | 86° |
| 2026-05-05 16:25 | 53.38361 | 9.15254 | 4881 ft | 229 kts | 79° |
| 2026-05-05 16:25 | 53.38623 | 9.17915 | 4878 ft | 236 kts | 79° |
| 2026-05-05 16:26 | 53.39228 | 9.23269 | 4871 ft | 233 kts | 77° |
| 2026-05-05 16:26 | 53.39864 | 9.28573 | 4871 ft | 232 kts | 77° |
| 2026-05-05 16:27 | 53.40192 | 9.31270 | 4875 ft | 238 kts | 77° |
| 2026-05-05 16:27 | 53.40526 | 9.33996 | 4872 ft | 243 kts | 77° |
| 2026-05-05 16:27 | 53.40868 | 9.36791 | 4801 ft | 248 kts | 77° |
| 2026-05-05 16:27 | 53.41215 | 9.39640 | 4672 ft | 246 kts | 76° |
| 2026-05-05 16:28 | 53.41554 | 9.42420 | 4540 ft | 241 kts | 76° |
| 2026-05-05 16:28 | 53.41885 | 9.45128 | 4408 ft | 237 kts | 76° |
| 2026-05-05 16:28 | 53.42212 | 9.47814 | 4281 ft | 234 kts | 76° |
| 2026-05-05 16:28 | 53.42533 | 9.50457 | 4148 ft | 233 kts | 76° |
| 2026-05-05 16:29 | 53.42858 | 9.53141 | 4015 ft | 233 kts | 76° |
| 2026-05-05 16:29 | 53.43174 | 9.55751 | 3946 ft | 230 kts | 76° |
| 2026-05-05 16:29 | 53.43489 | 9.58367 | 3791 ft | 231 kts | 76° |
| 2026-05-05 16:29 | 53.44118 | 9.60785 | 3606 ft | 228 kts | 48° |
| 2026-05-05 16:30 | 53.45128 | 9.62826 | 3427 ft | 227 kts | 47° |
| 2026-05-05 16:30 | 53.46140 | 9.64843 | 3243 ft | 226 kts | 48° |
| 2026-05-05 16:30 | 53.47150 | 9.66860 | 3061 ft | 225 kts | 50° |
| 2026-05-05 16:30 | 53.48121 | 9.68851 | 2988 ft | 221 kts | 50° |
| 2026-05-05 16:31 | 53.49089 | 9.70820 | 2977 ft | 215 kts | 50° |
| 2026-05-05 16:31 | 53.50044 | 9.72743 | 2977 ft | 211 kts | 50° |
| 2026-05-05 16:31 | 53.50974 | 9.74607 | 2977 ft | 209 kts | 50° |
| 2026-05-05 16:31 | 53.51907 | 9.76469 | 2979 ft | 207 kts | 50° |
| 2026-05-05 16:32 | 53.52826 | 9.78325 | 2823 ft | 204 kts | 51° |
| 2026-05-05 16:32 | 53.53696 | 9.80053 | 2566 ft | 186 kts | 50° |
| 2026-05-05 16:32 | 53.54491 | 9.81639 | 2332 ft | 170 kts | 50° |
| 2026-05-05 16:32 | 53.55215 | 9.83096 | 2114 ft | 158 kts | 50° |
| 2026-05-05 16:33 | 53.55927 | 9.84517 | 1909 ft | 159 kts | 50° |
| 2026-05-05 16:33 | 53.56630 | 9.85928 | 1700 ft | 157 kts | 49° |
| 2026-05-05 16:33 | 53.57323 | 9.87322 | 1491 ft | 154 kts | 49° |
| 2026-05-05 16:33 | 53.58014 | 9.88707 | 1281 ft | 152 kts | 50° |
| 2026-05-05 16:34 | 53.58686 | 9.90063 | 1079 ft | 152 kts | 49° |
| 2026-05-05 16:34 | 53.59352 | 9.91408 | 867 ft | 139 kts | 50° |
| 2026-05-05 16:34 | 53.59898 | 9.92499 | 708 ft | 111 kts | 51° |
| 2026-05-05 16:34 | 53.60368 | 9.93436 | 558 ft | 100 kts | 51° |
| 2026-05-05 16:35 | 53.60779 | 9.94284 | 413 ft | 90 kts | 50° |
| 2026-05-05 16:35 | 53.61156 | 9.95028 | 284 ft | 79 kts | 50° |
| 2026-05-05 16:35 | 53.61504 | 9.95730 | 169 ft | 78 kts | 47° |
| 2026-05-05 16:35 | 53.61863 | 9.96449 | 72 ft | 80 kts | 50° |
| 2026-05-05 16:36 | 53.62172 | 9.97082 | 26 ft | 58 kts | 51° |
| 2026-05-05 16:36 | 53.62397 | 9.97533 | 24 ft | 42 kts | 50° |
| 2026-05-05 16:36 | 53.62468 | 9.97755 | 25 ft | 15 kts | 98° |
| 2026-05-05 16:36 | 53.62435 | 9.97916 | 27 ft | 13 kts | 86° |
| 2026-05-05 16:37 | 53.62442 | 9.98020 | 29 ft | 0 kts | 76° |
| 2026-05-05 16:37 | 53.62464 | 9.98205 | 32 ft | 22 kts | 83° |
| 2026-05-05 16:37 | 53.62493 | 9.98471 | 34 ft | 23 kts | 79° |
| 2026-05-05 16:38 | 53.62517 | 9.98694 | 37 ft | 12 kts | 80° |
| 2026-05-05 16:38 | 53.62542 | 9.98918 | 39 ft | 21 kts | 78° |
| 2026-05-05 16:38 | 53.62568 | 9.99136 | 41 ft | 17 kts | 79° |
| 2026-05-05 16:38 | 53.62601 | 9.99406 | 36 ft | 24 kts | 81° |
| 2026-05-05 16:39 | 53.62587 | 9.99351 | 37 ft | 17 kts | 236° |
| 2026-05-05 16:39 | 53.62531 | 9.99405 | 39 ft | 13 kts | 83° |
| 2026-05-05 16:39 | 53.62533 | 9.99424 | 39 ft | 0 kts | 78° |